Terminal Aerodrome Forecast
Issued by NWS

Home | Current Version | Previous Version | Text Only | Print | Product List | Glossary On
Versions: 1 2 3 4 5 6 7 8 9 10 11 12 13 14 15 16
000
FTUS43 KSGF 300500
TAFBBG
TAF
KBBG 300520Z 3006/3106 VRB04KT P6SM BKN070
     FM301200 VRB04KT P6SM VCSH BKN070 OVC150
     FM301700 20005KT P6SM VCSH OVC050=

USA.gov is the U.S. government's official web portal to all federal, state and local government web resources and services.